createdAt,value
2022-10-03T00:02:04.750Z,41.99
2022-10-03T00:04:32.761Z,42.19
2022-10-03T00:07:00.599Z,41.97
2022-10-03T00:09:28.437Z,41.80
2022-10-03T00:11:56.245Z,41.93
2022-10-03T00:14:24.068Z,42.02
2022-10-03T00:16:51.973Z,42.18
2022-10-03T00:19:19.781Z,41.86
2022-10-03T00:21:47.602Z,42.01
2022-10-03T00:24:15.400Z,41.83
2022-10-03T00:26:43.275Z,41.97
2022-10-03T00:29:11.125Z,42.14
2022-10-03T00:31:39.239Z,42.19
2022-10-03T00:34:07.760Z,41.86
2022-10-03T00:36:35.587Z,42.04
2022-10-03T00:39:03.737Z,42.32
2022-10-03T00:41:31.517Z,42.35
2022-10-03T00:43:59.533Z,41.89
2022-10-03T00:46:27.401Z,42.20
2022-10-03T00:48:55.453Z,41.97
2022-10-03T00:51:23.344Z,42.23
2022-10-03T00:53:51.272Z,42.21
2022-10-03T00:56:19.118Z,42.03
2022-10-03T00:58:46.825Z,42.37
2022-10-03T01:01:14.787Z,42.09
2022-10-03T01:03:43.800Z,42.17
2022-10-03T01:06:15.281Z,42.14
2022-10-03T01:08:43.477Z,41.99
2022-10-03T01:11:11.230Z,42.28
2022-10-03T01:13:39.041Z,42.25
2022-10-03T01:16:06.933Z,42.14
2022-10-03T01:18:34.864Z,41.97
2022-10-03T01:21:02.667Z,42.38
2022-10-03T01:23:30.493Z,42.00
2022-10-03T01:25:58.247Z,42.17
2022-10-03T01:28:46.795Z,42.12
2022-10-03T01:31:14.661Z,42.21
2022-10-03T01:33:42.473Z,42.39
2022-10-03T01:36:10.530Z,42.02
2022-10-03T01:38:38.382Z,42.18
2022-10-03T01:41:07.089Z,42.03
2022-10-03T01:43:35.144Z,42.09
2022-10-03T01:46:02.852Z,42.46
2022-10-03T01:48:30.818Z,42.40
2022-10-03T01:50:58.480Z,42.10
2022-10-03T01:53:26.185Z,42.23
2022-10-03T01:55:53.878Z,42.26
2022-10-03T01:58:21.569Z,42.26
2022-10-03T02:00:49.248Z,42.51
2022-10-03T02:03:17.228Z,42.11
2022-10-03T02:05:45.034Z,41.94
2022-10-03T02:08:14.741Z,42.49
2022-10-03T02:10:42.392Z,42.40
2022-10-03T02:13:10.281Z,42.08
2022-10-03T02:15:37.994Z,42.41
2022-10-03T02:18:05.719Z,42.01
2022-10-03T02:20:33.426Z,42.17
2022-10-03T02:23:01.113Z,42.43
2022-10-03T02:25:30.399Z,42.40
2022-10-03T02:27:58.901Z,42.23
2022-10-03T02:30:26.687Z,42.35
2022-10-03T02:32:54.716Z,42.55
2022-10-03T02:35:22.426Z,42.63
2022-10-03T02:37:50.147Z,42.37
2022-10-03T02:40:17.841Z,42.35
2022-10-03T02:42:45.647Z,42.34
2022-10-03T02:45:13.375Z,42.57
2022-10-03T02:47:41.111Z,42.42
2022-10-03T02:50:08.968Z,42.58
2022-10-03T02:52:36.627Z,42.65
2022-10-03T02:55:04.546Z,42.39
2022-10-03T02:57:32.227Z,42.31
2022-10-03T02:59:59.927Z,42.35
2022-10-03T03:02:27.838Z,42.39
2022-10-03T03:04:56.694Z,42.56
2022-10-03T03:07:24.425Z,42.40
2022-10-03T03:09:52.176Z,42.25
2022-10-03T03:12:20.204Z,42.25
2022-10-03T03:14:48.041Z,42.17
2022-10-03T03:17:15.932Z,42.39
2022-10-03T03:19:43.650Z,42.28
2022-10-03T03:22:11.476Z,42.69
2022-10-03T03:24:39.624Z,42.39
2022-10-03T03:27:07.385Z,42.53
2022-10-03T03:29:35.037Z,42.73
2022-10-03T03:32:03.381Z,42.83
2022-10-03T03:34:31.166Z,42.77
2022-10-03T03:36:58.961Z,43.14
2022-10-03T03:39:26.589Z,43.06
2022-10-03T03:41:55.036Z,43.23
2022-10-03T03:44:22.717Z,42.78
2022-10-03T03:46:50.406Z,42.72
2022-10-03T03:49:18.193Z,43.15
2022-10-03T03:51:45.873Z,43.02
2022-10-03T03:54:13.709Z,42.76
2022-10-03T03:56:41.391Z,43.15
2022-10-03T03:59:09.093Z,43.10
2022-10-03T04:01:36.973Z,42.86
2022-10-03T04:04:04.834Z,42.75
2022-10-03T04:06:36.561Z,42.76
2022-10-03T04:09:04.363Z,42.92
2022-10-03T04:11:32.067Z,42.75
2022-10-03T04:13:59.796Z,43.28
2022-10-03T04:16:41.413Z,43.04
2022-10-03T04:19:09.278Z,43.33
2022-10-03T04:21:37.531Z,43.09
2022-10-03T04:24:06.417Z,43.30
2022-10-03T04:26:34.150Z,43.27
2022-10-03T04:29:02.422Z,43.04
2022-10-03T04:31:30.306Z,43.34
2022-10-03T04:33:58.907Z,42.95
2022-10-03T04:36:26.566Z,43.25
2022-10-03T04:38:54.686Z,43.08
2022-10-03T04:41:23.691Z,43.26
2022-10-03T04:43:52.654Z,43.12
2022-10-03T04:46:20.404Z,43.26
2022-10-03T04:48:48.117Z,43.04
2022-10-03T04:51:16.145Z,42.89
2022-10-03T04:53:46.204Z,43.08
2022-10-03T04:56:14.071Z,43.15
2022-10-03T04:58:41.911Z,43.02
2022-10-03T05:01:10.096Z,43.13
2022-10-03T05:03:37.984Z,42.86
2022-10-03T05:06:06.192Z,43.24
2022-10-03T05:08:34.151Z,43.02
2022-10-03T05:11:02.480Z,43.39
2022-10-03T05:13:30.449Z,42.95
2022-10-03T05:15:58.275Z,42.86
2022-10-03T05:18:27.144Z,43.10
2022-10-03T05:20:55.160Z,42.91
2022-10-03T05:23:22.907Z,43.39
2022-10-03T05:25:53.511Z,43.18
2022-10-03T05:28:21.529Z,42.77
2022-10-03T05:30:50.184Z,42.97
2022-10-03T05:33:18.032Z,43.11
2022-10-03T05:35:45.911Z,43.18
2022-10-03T05:38:13.834Z,42.86
2022-10-03T05:40:41.581Z,43.07
2022-10-03T05:43:09.359Z,43.34
2022-10-03T05:45:37.139Z,42.99
2022-10-03T05:48:05.075Z,43.17
2022-10-03T05:50:32.790Z,43.21
2022-10-03T05:53:00.557Z,43.24
2022-10-03T05:55:28.264Z,43.25
2022-10-03T05:57:55.982Z,42.96
2022-10-03T06:00:23.692Z,43.20
2022-10-03T06:02:51.539Z,43.24
2022-10-03T06:05:19.475Z,43.02
2022-10-03T06:07:47.209Z,43.06
2022-10-03T06:10:15.059Z,43.40
2022-10-03T06:12:42.778Z,43.12
2022-10-03T06:15:10.564Z,42.79
2022-10-03T06:17:43.019Z,43.28
2022-10-03T06:20:11.173Z,42.97
2022-10-03T06:22:39.498Z,43.27
2022-10-03T06:25:07.305Z,43.11
2022-10-03T06:27:35.026Z,43.42
2022-10-03T06:30:04.084Z,43.38
2022-10-03T06:32:32.102Z,43.06
2022-10-03T06:34:59.806Z,43.26
2022-10-03T06:37:27.550Z,43.30
2022-10-03T06:39:55.418Z,42.97
2022-10-03T06:42:23.220Z,43.03
2022-10-03T06:44:53.439Z,42.95
2022-10-03T06:47:21.252Z,43.25
2022-10-03T06:49:49.051Z,42.80
2022-10-03T06:52:16.894Z,43.07
2022-10-03T06:54:44.858Z,43.37
2022-10-03T06:57:12.748Z,43.26
2022-10-03T06:59:41.495Z,43.36
2022-10-03T07:02:09.860Z,43.58
2022-10-03T07:04:37.577Z,43.16
2022-10-03T07:07:07.527Z,43.45
2022-10-03T07:09:35.222Z,43.33
2022-10-03T07:12:10.834Z,43.65
2022-10-03T07:14:42.414Z,43.50
2022-10-03T07:17:10.294Z,43.33
2022-10-03T07:19:38.011Z,43.48
2022-10-03T07:22:05.690Z,43.60
2022-10-03T07:24:33.446Z,43.22
2022-10-03T07:27:01.888Z,43.56
2022-10-03T07:29:29.649Z,43.27
2022-10-03T07:31:57.588Z,43.28
2022-10-03T07:34:25.346Z,43.07
2022-10-03T07:37:10.669Z,43.10
2022-10-03T07:39:38.535Z,43.26
2022-10-03T07:42:06.187Z,43.07
2022-10-03T07:44:33.837Z,43.22
2022-10-03T07:47:01.712Z,43.01
2022-10-03T07:49:29.715Z,42.88
2022-10-03T07:52:01.043Z,43.11
2022-10-03T07:54:28.798Z,43.12
2022-10-03T07:56:56.489Z,43.00
2022-10-03T07:59:24.150Z,43.31
2022-10-03T08:01:51.855Z,42.73
2022-10-03T08:04:19.465Z,42.96
2022-10-03T08:06:47.174Z,43.01
2022-10-03T08:09:14.884Z,42.83
2022-10-03T08:11:42.773Z,42.76
2022-10-03T08:14:11.462Z,42.88
2022-10-03T08:16:39.204Z,42.80
2022-10-03T08:19:10.529Z,43.14
2022-10-03T08:21:38.972Z,42.72
2022-10-03T08:24:06.831Z,42.75
2022-10-03T08:26:34.535Z,43.13
2022-10-03T08:29:05.449Z,42.90
2022-10-03T08:31:33.156Z,42.69
2022-10-03T08:34:00.840Z,42.66
2022-10-03T08:36:29.016Z,42.71
2022-10-03T08:38:56.714Z,42.73
2022-10-03T08:41:24.519Z,42.42
2022-10-03T08:43:52.204Z,43.15
2022-10-03T08:46:25.208Z,42.75
2022-10-03T08:48:53.183Z,43.21
2022-10-03T08:51:21.041Z,43.22
2022-10-03T08:53:48.943Z,43.11
2022-10-03T08:56:16.682Z,42.97
2022-10-03T08:58:44.584Z,43.24
2022-10-03T09:01:12.325Z,42.99
2022-10-03T09:03:43.089Z,43.11
2022-10-03T09:06:11.262Z,43.14
2022-10-03T09:08:39.003Z,42.81
2022-10-03T09:11:06.710Z,42.78
2022-10-03T09:13:34.449Z,43.14
2022-10-03T09:16:02.181Z,43.18
2022-10-03T09:18:29.905Z,42.91
2022-10-03T09:20:57.742Z,43.08
2022-10-03T09:23:25.730Z,43.07
2022-10-03T09:25:53.616Z,42.95
2022-10-03T09:28:25.305Z,42.73
2022-10-03T09:30:53.980Z,42.92
2022-10-03T09:33:21.716Z,42.94
2022-10-03T09:35:49.511Z,43.55
2022-10-03T09:38:17.698Z,43.41
2022-10-03T09:40:47.157Z,43.42
2022-10-03T09:43:17.917Z,43.42
2022-10-03T09:45:48.661Z,43.50
2022-10-03T09:48:16.402Z,44.00
2022-10-03T09:50:44.890Z,43.67
2022-10-03T09:53:12.627Z,43.91
2022-10-03T09:55:40.604Z,43.80
2022-10-03T09:58:08.280Z,43.65
2022-10-03T10:00:36.734Z,43.62
2022-10-03T10:03:04.458Z,43.29
2022-10-03T10:05:32.135Z,43.91
2022-10-03T10:07:59.842Z,43.81
2022-10-03T10:10:27.506Z,43.75
2022-10-03T10:12:55.322Z,43.78
2022-10-03T10:15:23.097Z,43.78
2022-10-03T10:17:51.045Z,43.91
2022-10-03T10:20:18.876Z,43.53
2022-10-03T10:22:52.477Z,43.74
2022-10-03T10:25:28.927Z,43.83
2022-10-03T10:28:22.880Z,43.15
2022-10-03T10:30:50.735Z,44.01
2022-10-03T10:33:43.706Z,43.50
2022-10-03T10:36:11.367Z,43.31
2022-10-03T10:38:39.081Z,43.29
2022-10-03T10:41:06.812Z,43.31
2022-10-03T10:43:34.500Z,43.27
2022-10-03T10:46:04.729Z,43.54
2022-10-03T10:48:32.402Z,43.42
2022-10-03T10:51:00.108Z,43.16
2022-10-03T10:53:27.805Z,43.45
2022-10-03T10:55:55.500Z,42.97
2022-10-03T10:58:23.132Z,43.59
2022-10-03T11:00:50.966Z,43.12
2022-10-03T11:03:18.727Z,43.28
2022-10-03T11:05:47.342Z,43.36
2022-10-03T11:08:14.999Z,43.14
2022-10-03T11:10:42.750Z,43.12
2022-10-03T11:13:10.462Z,43.74
2022-10-03T11:15:38.124Z,43.71
2022-10-03T11:18:05.846Z,43.58
2022-10-03T11:20:33.516Z,43.81
2022-10-03T11:23:04.736Z,43.64
2022-10-03T11:25:32.832Z,43.76
2022-10-03T11:28:00.738Z,43.80
2022-10-03T11:30:28.518Z,43.36
2022-10-03T11:32:56.218Z,43.62
2022-10-03T11:35:25.369Z,43.68
2022-10-03T11:37:54.340Z,43.67
2022-10-03T11:40:21.998Z,43.53
2022-10-03T11:42:50.887Z,43.48
2022-10-03T11:45:18.591Z,43.69
2022-10-03T11:47:46.345Z,43.59
2022-10-03T11:50:14.226Z,43.35
2022-10-03T11:52:42.062Z,43.69
2022-10-03T11:55:09.724Z,43.38
2022-10-03T11:57:37.836Z,43.49
2022-10-03T12:00:05.648Z,43.31
2022-10-03T12:02:34.587Z,43.28
2022-10-03T12:05:02.508Z,43.59
2022-10-03T12:07:47.659Z,43.18
2022-10-03T12:10:15.427Z,43.33
2022-10-03T12:12:43.463Z,43.12
2022-10-03T12:15:11.172Z,43.57
2022-10-03T12:17:38.939Z,43.48
2022-10-03T12:20:06.671Z,43.62
2022-10-03T12:22:34.627Z,43.08
2022-10-03T12:25:02.352Z,43.25
2022-10-03T12:27:30.289Z,43.32
2022-10-03T12:29:58.912Z,43.46
2022-10-03T12:32:26.759Z,43.01
2022-10-03T12:34:55.208Z,43.33
2022-10-03T12:37:23.439Z,43.49
2022-10-03T12:39:51.582Z,43.20
2022-10-03T12:42:19.325Z,43.30
2022-10-03T12:44:47.141Z,42.98
2022-10-03T12:47:14.854Z,43.39
2022-10-03T12:49:42.551Z,43.65
2022-10-03T12:52:10.308Z,42.93
2022-10-03T12:54:38.100Z,43.02
2022-10-03T12:57:05.951Z,42.96
2022-10-03T12:59:33.645Z,43.04
2022-10-03T13:02:01.724Z,43.12
2022-10-03T13:04:30.101Z,43.27
2022-10-03T13:07:05.126Z,43.12
2022-10-03T13:09:33.189Z,43.31
2022-10-03T13:12:01.027Z,43.13
2022-10-03T13:14:28.812Z,43.38
2022-10-03T13:16:56.503Z,43.10
2022-10-03T13:19:24.295Z,43.17
2022-10-03T13:21:52.512Z,43.53
2022-10-03T13:24:20.684Z,43.21
2022-10-03T13:26:48.424Z,43.28
2022-10-03T13:29:17.387Z,43.33
2022-10-03T13:31:45.159Z,43.44
2022-10-03T13:34:12.881Z,43.55
2022-10-03T13:36:40.639Z,43.32
2022-10-03T13:39:08.289Z,43.50
2022-10-03T13:41:35.915Z,43.25
2022-10-03T13:44:04.571Z,43.50
2022-10-03T13:46:32.554Z,43.59
2022-10-03T13:49:02.318Z,39.21
2022-10-03T13:51:30.271Z,32.83
2022-10-03T13:53:59.886Z,28.71
2022-10-03T13:56:27.624Z,26.68
2022-10-03T13:58:55.537Z,25.30
2022-10-03T14:01:23.284Z,24.30
2022-10-03T14:03:51.024Z,23.32
2022-10-03T14:06:18.654Z,23.01
2022-10-03T14:08:46.548Z,22.70
2022-10-03T14:11:14.377Z,22.62
2022-10-03T14:13:43.487Z,22.60
2022-10-03T14:16:11.348Z,22.61
2022-10-03T14:18:39.077Z,22.93
2022-10-03T14:21:06.784Z,23.57
2022-10-03T14:23:35.062Z,23.96
2022-10-03T14:26:02.796Z,24.88
2022-10-03T14:28:30.514Z,25.89
2022-10-03T14:31:05.869Z,26.29
2022-10-03T14:33:34.078Z,27.70
2022-10-03T14:36:01.731Z,27.83
2022-10-03T14:38:49.421Z,28.85
2022-10-03T14:41:17.082Z,29.95
2022-10-03T14:43:44.725Z,30.54
2022-10-03T14:46:17.849Z,31.49
2022-10-03T14:48:46.020Z,31.71
2022-10-03T14:51:13.733Z,32.51
2022-10-03T14:53:41.925Z,32.80
2022-10-03T14:56:09.580Z,33.36
2022-10-03T14:58:39.955Z,33.89
2022-10-03T15:01:07.686Z,34.16
2022-10-03T15:03:38.265Z,34.90
2022-10-03T15:06:06.078Z,35.01
2022-10-03T15:08:34.142Z,35.50
2022-10-03T15:11:02.661Z,35.67
2022-10-03T15:13:30.317Z,36.07
2022-10-03T15:15:58.102Z,36.45
2022-10-03T15:18:25.799Z,36.90
2022-10-03T15:20:57.344Z,36.90
2022-10-03T15:23:25.479Z,37.90
2022-10-03T15:25:54.018Z,37.88
2022-10-03T15:28:21.792Z,38.38
2022-10-03T15:30:49.717Z,38.72
2022-10-03T15:33:17.476Z,38.73
2022-10-03T15:35:46.991Z,38.68
2022-10-03T15:38:15.265Z,39.45
2022-10-03T15:40:43.167Z,39.05
2022-10-03T15:43:13.055Z,39.23
2022-10-03T15:45:40.841Z,39.75
2022-10-03T15:48:08.728Z,39.81
2022-10-03T15:50:36.501Z,39.80
2022-10-03T15:53:34.432Z,40.01
2022-10-03T15:55:56.476Z,40.30
2022-10-03T15:58:24.209Z,40.29
2022-10-03T16:00:51.947Z,40.11
2022-10-03T16:03:20.971Z,40.55
2022-10-03T16:05:49.486Z,41.00
2022-10-03T16:08:17.220Z,40.89
2022-10-03T16:10:45.092Z,40.82
2022-10-03T16:13:12.811Z,40.51
2022-10-03T16:15:40.593Z,38.56
2022-10-03T16:18:08.515Z,36.39
2022-10-03T16:20:36.227Z,34.41
2022-10-03T16:23:03.932Z,33.00
2022-10-03T16:25:31.651Z,31.25
2022-10-03T16:27:59.781Z,29.69
2022-10-03T16:30:27.657Z,28.77
2022-10-03T16:32:56.709Z,28.30
2022-10-03T16:35:24.611Z,29.02
2022-10-03T16:37:52.480Z,28.58
2022-10-03T16:40:20.239Z,29.94
2022-10-03T16:42:49.119Z,30.21
2022-10-03T16:45:16.874Z,31.05
2022-10-03T16:47:44.591Z,31.91
2022-10-03T16:50:26.659Z,32.66
2022-10-03T16:52:54.346Z,33.72
2022-10-03T16:55:22.511Z,33.83
2022-10-03T16:57:50.356Z,34.63
2022-10-03T17:00:18.069Z,34.77
2022-10-03T17:02:46.212Z,35.24
2022-10-03T17:05:13.956Z,35.58
2022-10-03T17:07:41.821Z,36.31
2022-10-03T17:10:09.758Z,36.91
2022-10-03T17:12:37.413Z,37.25
2022-10-03T17:15:05.061Z,37.03
2022-10-03T17:17:32.809Z,37.36
2022-10-03T17:20:00.593Z,38.29
2022-10-03T17:22:28.382Z,38.16
2022-10-03T17:24:56.094Z,38.63
2022-10-03T17:27:23.782Z,38.29
2022-10-03T17:29:51.505Z,39.32
2022-10-03T17:32:24.526Z,38.86
2022-10-03T17:34:53.214Z,39.11
2022-10-03T17:37:21.103Z,39.55
2022-10-03T17:39:49.230Z,40.32
2022-10-03T17:42:17.004Z,40.02
2022-10-03T17:44:47.559Z,40.04
2022-10-03T17:47:15.691Z,40.31
2022-10-03T17:49:43.704Z,40.70
2022-10-03T17:52:11.401Z,40.65
2022-10-03T17:54:39.190Z,40.83
2022-10-03T17:57:07.025Z,40.61
2022-10-03T17:59:34.740Z,40.74
2022-10-03T18:02:03.807Z,40.38
2022-10-03T18:04:33.452Z,40.66
2022-10-03T18:07:01.220Z,39.95
2022-10-03T18:09:28.920Z,38.51
2022-10-03T18:11:56.580Z,37.24
2022-10-03T18:14:24.279Z,35.45
2022-10-03T18:16:53.071Z,33.20
2022-10-03T18:19:21.788Z,30.36
2022-10-03T18:21:49.795Z,29.32
2022-10-03T18:24:17.489Z,27.85
2022-10-03T18:26:45.242Z,27.54
2022-10-03T18:29:13.378Z,27.62
2022-10-03T18:31:41.643Z,28.86
2022-10-03T18:34:13.690Z,29.10
2022-10-03T18:36:41.666Z,29.38
2022-10-03T18:39:09.329Z,30.29
2022-10-03T18:41:37.263Z,30.86
2022-10-03T18:44:05.378Z,31.76
2022-10-03T18:46:33.064Z,32.62
2022-10-03T18:49:30.182Z,32.92
2022-10-03T18:51:48.524Z,33.83
2022-10-03T18:54:16.356Z,34.25
2022-10-03T18:56:44.064Z,34.89
2022-10-03T18:59:11.733Z,35.35
2022-10-03T19:01:39.783Z,35.52
2022-10-03T19:04:07.697Z,36.22
2022-10-03T19:06:35.551Z,36.28
2022-10-03T19:09:03.340Z,36.64
2022-10-03T19:11:31.018Z,37.10
2022-10-03T19:13:58.933Z,37.74
2022-10-03T19:16:26.714Z,38.02
2022-10-03T19:18:54.440Z,38.06
2022-10-03T19:21:23.344Z,38.57
2022-10-03T19:23:51.069Z,38.65
2022-10-03T19:26:18.838Z,38.97
2022-10-03T19:28:46.539Z,39.49
2022-10-03T19:31:14.183Z,39.61
2022-10-03T19:33:42.013Z,40.05
2022-10-03T19:36:09.666Z,40.11
2022-10-03T19:38:37.297Z,39.94
2022-10-03T19:41:04.955Z,40.43
2022-10-03T19:43:32.659Z,40.62
2022-10-03T19:46:00.355Z,40.48
2022-10-03T19:48:28.069Z,40.50
2022-10-03T19:50:55.690Z,40.10
2022-10-03T19:53:23.590Z,40.09
2022-10-03T19:55:51.296Z,39.64
2022-10-03T19:58:23.180Z,40.08
2022-10-03T20:00:51.859Z,39.79
2022-10-03T20:03:21.910Z,40.05
2022-10-03T20:05:49.613Z,40.33
2022-10-03T20:08:17.516Z,40.23
2022-10-03T20:10:45.191Z,40.56
2022-10-03T20:13:12.794Z,40.39
2022-10-03T20:15:41.876Z,40.87
2022-10-03T20:18:10.759Z,41.12
2022-10-03T20:20:38.411Z,40.84
2022-10-03T20:23:06.069Z,41.23
2022-10-03T20:25:35.752Z,41.31
2022-10-03T20:28:03.518Z,41.45
2022-10-03T20:30:31.335Z,41.23
2022-10-03T20:32:59.147Z,41.63
2022-10-03T20:35:26.857Z,41.42
2022-10-03T20:37:54.856Z,41.73
2022-10-03T20:40:22.577Z,42.10
2022-10-03T20:42:50.403Z,41.65
2022-10-03T20:45:21.527Z,42.03
2022-10-03T20:47:49.270Z,41.96
2022-10-03T20:50:19.173Z,41.55
2022-10-03T20:52:46.917Z,42.17
2022-10-03T20:55:14.791Z,42.13
2022-10-03T20:57:42.529Z,41.81
2022-10-03T21:00:10.609Z,41.85
2022-10-03T21:02:38.470Z,41.84
2022-10-03T21:05:06.229Z,42.49
2022-10-03T21:07:34.202Z,42.01
2022-10-03T21:10:01.931Z,42.22
2022-10-03T21:12:29.729Z,41.92
2022-10-03T21:14:57.569Z,42.16
2022-10-03T21:17:25.284Z,42.40
2022-10-03T21:19:53.132Z,42.54
2022-10-03T21:22:26.793Z,41.94
2022-10-03T21:24:54.440Z,41.96
2022-10-03T21:27:22.113Z,42.58
2022-10-03T21:29:49.824Z,42.55
2022-10-03T21:32:17.708Z,42.50
2022-10-03T21:34:45.331Z,42.68
2022-10-03T21:37:13.204Z,42.52
2022-10-03T21:39:40.940Z,42.21
2022-10-03T21:42:08.594Z,42.40
2022-10-03T21:44:36.308Z,42.27
2022-10-03T21:47:03.997Z,42.70
2022-10-03T21:49:31.716Z,42.64
2022-10-03T21:54:27.104Z,42.62
2022-10-03T21:56:54.769Z,42.84
2022-10-03T21:59:22.410Z,42.62
2022-10-03T22:01:50.240Z,42.43
2022-10-03T22:04:18.167Z,42.85
2022-10-03T22:06:45.820Z,43.07
2022-10-03T22:09:13.739Z,43.05
2022-10-03T22:11:43.273Z,42.91
2022-10-03T22:14:10.948Z,42.73
2022-10-03T22:16:38.631Z,42.74
2022-10-03T22:19:06.422Z,42.95
2022-10-03T22:21:34.112Z,42.68
2022-10-03T22:24:01.888Z,42.98
2022-10-03T22:26:29.532Z,42.99
2022-10-03T22:28:57.823Z,42.96
2022-10-03T22:31:25.727Z,42.89
2022-10-03T22:33:53.471Z,43.22
2022-10-03T22:36:21.285Z,42.93
2022-10-03T22:38:48.979Z,43.28
2022-10-03T22:41:16.645Z,42.89
2022-10-03T22:43:44.349Z,42.70
2022-10-03T22:46:12.134Z,42.71
2022-10-03T22:48:39.811Z,43.06
2022-10-03T22:51:07.646Z,43.03
2022-10-03T22:53:35.313Z,42.90
2022-10-03T22:56:03.244Z,43.24
2022-10-03T22:58:31.026Z,43.13
2022-10-03T23:00:58.686Z,42.96
2022-10-03T23:03:26.342Z,43.19
2022-10-03T23:05:54.105Z,43.02
2022-10-03T23:08:21.801Z,43.15
2022-10-03T23:10:49.702Z,42.90
2022-10-03T23:13:17.371Z,43.13
2022-10-03T23:15:45.240Z,43.13
2022-10-03T23:18:13.023Z,43.08
2022-10-03T23:20:40.676Z,43.04
2022-10-03T23:23:08.437Z,43.09
2022-10-03T23:25:36.098Z,42.91
2022-10-03T23:28:03.787Z,43.23
2022-10-03T23:30:31.653Z,43.36
2022-10-03T23:33:00.912Z,43.03
2022-10-03T23:35:28.562Z,43.47
2022-10-03T23:37:56.240Z,43.26
2022-10-03T23:40:23.916Z,43.21
2022-10-03T23:42:51.877Z,43.01
2022-10-03T23:45:19.558Z,43.52
2022-10-03T23:47:47.365Z,43.54
2022-10-03T23:50:15.083Z,43.44
2022-10-03T23:52:42.894Z,43.19
2022-10-03T23:55:10.588Z,43.03
2022-10-03T23:57:38.233Z,43.46
